sensor_id;sensor_type;location;lat;lon;timestamp;P1;durP1;ratioP1;P2;durP2;ratioP2
13487;SDS011;6816;48.506;9.050;2023-04-25T00:01:55;2.83;;;2.57;;
13487;SDS011;6816;48.506;9.050;2023-04-25T00:04:56;3.03;;;2.40;;
13487;SDS011;6816;48.506;9.050;2023-04-25T00:07:58;3.93;;;2.50;;
13487;SDS011;6816;48.506;9.050;2023-04-25T00:10:58;2.70;;;2.47;;
13487;SDS011;6816;48.506;9.050;2023-04-25T00:13:59;2.47;;;2.27;;
13487;SDS011;6816;48.506;9.050;2023-04-25T00:17:02;5.17;;;2.70;;
13487;SDS011;6816;48.506;9.050;2023-04-25T00:20:02;3.77;;;2.13;;
13487;SDS011;6816;48.506;9.050;2023-04-25T00:23:05;3.17;;;2.23;;
13487;SDS011;6816;48.506;9.050;2023-04-25T00:26:05;2.70;;;2.27;;
13487;SDS011;6816;48.506;9.050;2023-04-25T00:29:06;3.40;;;2.00;;
13487;SDS011;6816;48.506;9.050;2023-04-25T00:32:06;2.67;;;1.90;;
13487;SDS011;6816;48.506;9.050;2023-04-25T00:35:07;2.40;;;2.20;;
13487;SDS011;6816;48.506;9.050;2023-04-25T00:38:08;2.40;;;2.10;;
13487;SDS011;6816;48.506;9.050;2023-04-25T00:41:09;3.30;;;2.13;;
13487;SDS011;6816;48.506;9.050;2023-04-25T00:44:10;2.40;;;2.20;;
13487;SDS011;6816;48.506;9.050;2023-04-25T00:47:12;2.40;;;2.10;;
13487;SDS011;6816;48.506;9.050;2023-04-25T00:50:13;2.30;;;2.10;;
13487;SDS011;6816;48.506;9.050;2023-04-25T00:53:14;2.57;;;2.20;;
13487;SDS011;6816;48.506;9.050;2023-04-25T00:56:15;2.70;;;2.30;;
13487;SDS011;6816;48.506;9.050;2023-04-25T00:59:16;2.73;;;2.40;;
13487;SDS011;6816;48.506;9.050;2023-04-25T01:02:18;2.40;;;2.20;;
13487;SDS011;6816;48.506;9.050;2023-04-25T01:05:20;2.80;;;2.37;;
13487;SDS011;6816;48.506;9.050;2023-04-25T01:08:21;2.53;;;2.33;;
13487;SDS011;6816;48.506;9.050;2023-04-25T01:11:25;3.47;;;2.10;;
13487;SDS011;6816;48.506;9.050;2023-04-25T01:14:25;3.20;;;2.13;;
13487;SDS011;6816;48.506;9.050;2023-04-25T01:17:26;3.10;;;2.27;;
13487;SDS011;6816;48.506;9.050;2023-04-25T01:20:29;2.83;;;2.60;;
13487;SDS011;6816;48.506;9.050;2023-04-25T01:23:31;2.93;;;2.50;;
13487;SDS011;6816;48.506;9.050;2023-04-25T01:26:33;3.57;;;2.30;;
13487;SDS011;6816;48.506;9.050;2023-04-25T01:29:35;3.03;;;2.53;;
13487;SDS011;6816;48.506;9.050;2023-04-25T01:32:36;3.23;;;2.20;;
13487;SDS011;6816;48.506;9.050;2023-04-25T01:35:40;3.00;;;2.07;;
13487;SDS011;6816;48.506;9.050;2023-04-25T01:38:41;2.40;;;2.20;;
13487;SDS011;6816;48.506;9.050;2023-04-25T01:41:44;3.73;;;2.30;;
13487;SDS011;6816;48.506;9.050;2023-04-25T01:44:48;2.30;;;2.10;;
13487;SDS011;6816;48.506;9.050;2023-04-25T01:47:49;2.30;;;2.10;;
13487;SDS011;6816;48.506;9.050;2023-04-25T01:50:50;2.67;;;2.20;;
13487;SDS011;6816;48.506;9.050;2023-04-25T01:53:51;2.23;;;2.03;;
13487;SDS011;6816;48.506;9.050;2023-04-25T01:56:52;2.83;;;2.07;;
13487;SDS011;6816;48.506;9.050;2023-04-25T01:59:58;2.63;;;2.17;;
13487;SDS011;6816;48.506;9.050;2023-04-25T02:03:00;3.13;;;2.43;;
13487;SDS011;6816;48.506;9.050;2023-04-25T02:06:01;4.53;;;2.50;;
13487;SDS011;6816;48.506;9.050;2023-04-25T02:09:02;2.50;;;2.20;;
13487;SDS011;6816;48.506;9.050;2023-04-25T02:12:03;4.10;;;2.53;;
13487;SDS011;6816;48.506;9.050;2023-04-25T02:15:04;3.23;;;2.50;;
13487;SDS011;6816;48.506;9.050;2023-04-25T02:18:05;4.40;;;2.50;;
13487;SDS011;6816;48.506;9.050;2023-04-25T02:21:06;2.80;;;2.20;;
13487;SDS011;6816;48.506;9.050;2023-04-25T02:24:07;2.60;;;2.20;;
13487;SDS011;6816;48.506;9.050;2023-04-25T02:27:08;4.17;;;2.30;;
13487;SDS011;6816;48.506;9.050;2023-04-25T02:30:08;3.83;;;2.20;;
13487;SDS011;6816;48.506;9.050;2023-04-25T02:33:09;2.93;;;2.07;;
13487;SDS011;6816;48.506;9.050;2023-04-25T02:36:10;2.70;;;2.30;;
13487;SDS011;6816;48.506;9.050;2023-04-25T02:39:10;2.40;;;2.20;;
13487;SDS011;6816;48.506;9.050;2023-04-25T02:42:11;3.20;;;2.30;;
13487;SDS011;6816;48.506;9.050;2023-04-25T02:45:12;3.63;;;2.30;;
13487;SDS011;6816;48.506;9.050;2023-04-25T02:48:13;2.67;;;2.27;;
13487;SDS011;6816;48.506;9.050;2023-04-25T02:51:13;2.93;;;2.37;;
13487;SDS011;6816;48.506;9.050;2023-04-25T02:54:16;2.73;;;2.10;;
13487;SDS011;6816;48.506;9.050;2023-04-25T02:57:16;2.30;;;1.83;;
13487;SDS011;6816;48.506;9.050;2023-04-25T03:00:17;1.73;;;1.63;;
13487;SDS011;6816;48.506;9.050;2023-04-25T03:03:18;2.00;;;1.80;;
13487;SDS011;6816;48.506;9.050;2023-04-25T03:06:21;2.30;;;1.73;;
13487;SDS011;6816;48.506;9.050;2023-04-25T03:09:22;3.37;;;1.83;;
13487;SDS011;6816;48.506;9.050;2023-04-25T03:12:22;2.03;;;1.70;;
13487;SDS011;6816;48.506;9.050;2023-04-25T03:15:23;1.97;;;1.83;;
13487;SDS011;6816;48.506;9.050;2023-04-25T03:18:23;2.47;;;1.87;;
13487;SDS011;6816;48.506;9.050;2023-04-25T03:21:24;2.07;;;1.77;;
13487;SDS011;6816;48.506;9.050;2023-04-25T03:24:25;1.80;;;1.63;;
13487;SDS011;6816;48.506;9.050;2023-04-25T03:27:27;1.50;;;1.40;;
13487;SDS011;6816;48.506;9.050;2023-04-25T03:30:27;4.13;;;1.60;;
13487;SDS011;6816;48.506;9.050;2023-04-25T03:33:28;2.97;;;1.60;;
13487;SDS011;6816;48.506;9.050;2023-04-25T03:36:28;1.93;;;1.77;;
13487;SDS011;6816;48.506;9.050;2023-04-25T03:39:29;2.40;;;1.67;;
13487;SDS011;6816;48.506;9.050;2023-04-25T03:42:30;2.00;;;1.90;;
13487;SDS011;6816;48.506;9.050;2023-04-25T03:45:30;3.77;;;1.63;;
13487;SDS011;6816;48.506;9.050;2023-04-25T03:48:31;2.17;;;1.90;;
13487;SDS011;6816;48.506;9.050;2023-04-25T03:51:31;3.27;;;1.83;;
13487;SDS011;6816;48.506;9.050;2023-04-25T03:54:32;2.70;;;1.97;;
13487;SDS011;6816;48.506;9.050;2023-04-25T03:57:33;2.80;;;1.60;;
13487;SDS011;6816;48.506;9.050;2023-04-25T04:00:33;2.53;;;1.80;;
13487;SDS011;6816;48.506;9.050;2023-04-25T04:03:34;3.00;;;1.90;;
13487;SDS011;6816;48.506;9.050;2023-04-25T04:06:36;3.07;;;2.20;;
13487;SDS011;6816;48.506;9.050;2023-04-25T04:09:36;3.17;;;1.63;;
13487;SDS011;6816;48.506;9.050;2023-04-25T04:12:37;3.20;;;2.03;;
13487;SDS011;6816;48.506;9.050;2023-04-25T04:15:38;3.63;;;2.60;;
13487;SDS011;6816;48.506;9.050;2023-04-25T04:18:39;2.30;;;2.03;;
13487;SDS011;6816;48.506;9.050;2023-04-25T04:21:40;3.37;;;2.53;;
13487;SDS011;6816;48.506;9.050;2023-04-25T04:24:40;2.50;;;2.17;;
13487;SDS011;6816;48.506;9.050;2023-04-25T04:27:43;2.57;;;2.37;;
13487;SDS011;6816;48.506;9.050;2023-04-25T04:30:44;4.77;;;2.37;;
13487;SDS011;6816;48.506;9.050;2023-04-25T04:33:47;3.73;;;2.33;;
13487;SDS011;6816;48.506;9.050;2023-04-25T04:36:47;4.17;;;2.10;;
13487;SDS011;6816;48.506;9.050;2023-04-25T04:39:48;2.20;;;2.00;;
13487;SDS011;6816;48.506;9.050;2023-04-25T04:42:50;2.17;;;1.93;;
13487;SDS011;6816;48.506;9.050;2023-04-25T04:45:50;2.30;;;2.10;;
13487;SDS011;6816;48.506;9.050;2023-04-25T04:48:52;2.30;;;2.10;;
13487;SDS011;6816;48.506;9.050;2023-04-25T04:51:53;2.97;;;2.07;;
13487;SDS011;6816;48.506;9.050;2023-04-25T04:54:54;2.13;;;1.93;;
13487;SDS011;6816;48.506;9.050;2023-04-25T04:57:55;2.20;;;2.00;;
13487;SDS011;6816;48.506;9.050;2023-04-25T05:00:56;2.70;;;2.33;;
13487;SDS011;6816;48.506;9.050;2023-04-25T05:03:57;3.00;;;2.40;;
13487;SDS011;6816;48.506;9.050;2023-04-25T05:07:00;2.67;;;2.37;;
13487;SDS011;6816;48.506;9.050;2023-04-25T05:10:00;2.30;;;2.10;;
13487;SDS011;6816;48.506;9.050;2023-04-25T05:13:01;3.47;;;2.40;;
13487;SDS011;6816;48.506;9.050;2023-04-25T05:16:02;2.60;;;2.30;;
13487;SDS011;6816;48.506;9.050;2023-04-25T05:19:03;2.57;;;2.10;;
13487;SDS011;6816;48.506;9.050;2023-04-25T05:22:04;3.00;;;2.20;;
13487;SDS011;6816;48.506;9.050;2023-04-25T05:25:12;3.23;;;2.30;;
13487;SDS011;6816;48.506;9.050;2023-04-25T05:28:12;2.20;;;2.00;;
13487;SDS011;6816;48.506;9.050;2023-04-25T05:31:13;2.50;;;2.23;;
13487;SDS011;6816;48.506;9.050;2023-04-25T05:34:14;3.43;;;2.70;;
13487;SDS011;6816;48.506;9.050;2023-04-25T05:37:15;2.60;;;2.30;;
13487;SDS011;6816;48.506;9.050;2023-04-25T05:40:15;2.30;;;2.10;;
13487;SDS011;6816;48.506;9.050;2023-04-25T05:43:16;4.90;;;2.87;;
13487;SDS011;6816;48.506;9.050;2023-04-25T05:46:17;3.47;;;2.43;;
13487;SDS011;6816;48.506;9.050;2023-04-25T05:49:17;3.97;;;2.97;;
13487;SDS011;6816;48.506;9.050;2023-04-25T05:52:18;3.40;;;3.07;;
13487;SDS011;6816;48.506;9.050;2023-04-25T05:55:18;3.73;;;2.77;;
13487;SDS011;6816;48.506;9.050;2023-04-25T05:58:19;3.77;;;3.20;;
13487;SDS011;6816;48.506;9.050;2023-04-25T06:01:21;4.30;;;2.90;;
13487;SDS011;6816;48.506;9.050;2023-04-25T06:04:22;5.00;;;2.33;;
13487;SDS011;6816;48.506;9.050;2023-04-25T06:07:26;2.90;;;2.50;;
13487;SDS011;6816;48.506;9.050;2023-04-25T06:10:27;4.53;;;2.50;;
13487;SDS011;6816;48.506;9.050;2023-04-25T06:13:27;2.50;;;2.30;;
13487;SDS011;6816;48.506;9.050;2023-04-25T06:16:28;4.30;;;2.57;;
13487;SDS011;6816;48.506;9.050;2023-04-25T06:19:29;5.00;;;2.83;;
13487;SDS011;6816;48.506;9.050;2023-04-25T06:22:30;5.97;;;2.40;;
13487;SDS011;6816;48.506;9.050;2023-04-25T06:25:30;4.10;;;2.00;;
13487;SDS011;6816;48.506;9.050;2023-04-25T06:28:31;2.00;;;1.80;;
13487;SDS011;6816;48.506;9.050;2023-04-25T06:31:31;2.77;;;1.77;;
13487;SDS011;6816;48.506;9.050;2023-04-25T06:34:33;3.90;;;1.93;;
13487;SDS011;6816;48.506;9.050;2023-04-25T06:37:34;3.10;;;1.93;;
13487;SDS011;6816;48.506;9.050;2023-04-25T06:40:34;2.63;;;2.10;;
13487;SDS011;6816;48.506;9.050;2023-04-25T06:43:35;2.77;;;1.77;;
13487;SDS011;6816;48.506;9.050;2023-04-25T06:46:36;2.77;;;1.60;;
13487;SDS011;6816;48.506;9.050;2023-04-25T06:49:37;3.80;;;1.87;;
13487;SDS011;6816;48.506;9.050;2023-04-25T06:52:38;5.73;;;1.90;;
13487;SDS011;6816;48.506;9.050;2023-04-25T06:55:38;2.83;;;1.50;;
13487;SDS011;6816;48.506;9.050;2023-04-25T06:58:39;2.17;;;1.70;;
13487;SDS011;6816;48.506;9.050;2023-04-25T07:01:40;2.00;;;1.70;;
13487;SDS011;6816;48.506;9.050;2023-04-25T07:04:40;2.43;;;1.80;;
13487;SDS011;6816;48.506;9.050;2023-04-25T07:07:41;2.10;;;1.90;;
13487;SDS011;6816;48.506;9.050;2023-04-25T07:10:42;2.77;;;1.57;;
13487;SDS011;6816;48.506;9.050;2023-04-25T07:13:42;2.57;;;1.43;;
13487;SDS011;6816;48.506;9.050;2023-04-25T07:16:43;1.87;;;1.70;;
13487;SDS011;6816;48.506;9.050;2023-04-25T07:19:44;2.20;;;1.70;;
13487;SDS011;6816;48.506;9.050;2023-04-25T07:22:44;2.37;;;1.77;;
13487;SDS011;6816;48.506;9.050;2023-04-25T07:25:45;1.77;;;1.60;;
13487;SDS011;6816;48.506;9.050;2023-04-25T07:28:46;2.87;;;1.70;;
13487;SDS011;6816;48.506;9.050;2023-04-25T07:31:50;2.23;;;1.70;;
13487;SDS011;6816;48.506;9.050;2023-04-25T07:34:51;3.00;;;1.73;;
13487;SDS011;6816;48.506;9.050;2023-04-25T07:37:51;2.63;;;1.60;;
13487;SDS011;6816;48.506;9.050;2023-04-25T07:40:52;1.87;;;1.60;;
13487;SDS011;6816;48.506;9.050;2023-04-25T07:43:52;1.87;;;1.63;;
13487;SDS011;6816;48.506;9.050;2023-04-25T07:46:53;2.57;;;2.00;;
13487;SDS011;6816;48.506;9.050;2023-04-25T07:49:54;2.33;;;1.87;;
13487;SDS011;6816;48.506;9.050;2023-04-25T07:52:54;1.83;;;1.73;;
13487;SDS011;6816;48.506;9.050;2023-04-25T07:55:55;2.20;;;2.00;;
13487;SDS011;6816;48.506;9.050;2023-04-25T07:58:56;2.77;;;1.70;;
13487;SDS011;6816;48.506;9.050;2023-04-25T08:01:57;2.23;;;1.60;;
13487;SDS011;6816;48.506;9.050;2023-04-25T08:04:57;1.83;;;1.70;;
13487;SDS011;6816;48.506;9.050;2023-04-25T08:07:58;1.80;;;1.70;;
13487;SDS011;6816;48.506;9.050;2023-04-25T08:10:59;3.50;;;1.90;;
13487;SDS011;6816;48.506;9.050;2023-04-25T08:13:59;2.00;;;1.77;;
13487;SDS011;6816;48.506;9.050;2023-04-25T08:17:00;2.73;;;1.90;;
13487;SDS011;6816;48.506;9.050;2023-04-25T08:20:01;3.10;;;1.83;;
13487;SDS011;6816;48.506;9.050;2023-04-25T08:23:05;4.37;;;1.80;;
13487;SDS011;6816;48.506;9.050;2023-04-25T08:26:06;2.67;;;1.77;;
13487;SDS011;6816;48.506;9.050;2023-04-25T08:29:07;2.47;;;1.73;;
13487;SDS011;6816;48.506;9.050;2023-04-25T08:32:07;2.17;;;1.80;;
13487;SDS011;6816;48.506;9.050;2023-04-25T08:35:08;2.20;;;1.87;;
13487;SDS011;6816;48.506;9.050;2023-04-25T08:38:09;2.63;;;1.63;;
13487;SDS011;6816;48.506;9.050;2023-04-25T08:41:10;2.40;;;1.97;;
13487;SDS011;6816;48.506;9.050;2023-04-25T08:44:11;1.87;;;1.67;;
13487;SDS011;6816;48.506;9.050;2023-04-25T08:47:13;2.27;;;1.53;;
13487;SDS011;6816;48.506;9.050;2023-04-25T08:50:13;2.30;;;1.70;;
13487;SDS011;6816;48.506;9.050;2023-04-25T08:53:14;2.10;;;1.50;;
13487;SDS011;6816;48.506;9.050;2023-04-25T08:56:18;2.20;;;2.00;;
13487;SDS011;6816;48.506;9.050;2023-04-25T08:59:22;2.47;;;1.83;;
13487;SDS011;6816;48.506;9.050;2023-04-25T09:02:23;3.17;;;2.17;;
13487;SDS011;6816;48.506;9.050;2023-04-25T09:05:25;3.80;;;1.90;;
13487;SDS011;6816;48.506;9.050;2023-04-25T09:08:26;1.53;;;1.43;;
13487;SDS011;6816;48.506;9.050;2023-04-25T09:11:26;1.67;;;1.40;;
13487;SDS011;6816;48.506;9.050;2023-04-25T09:14:27;1.70;;;1.60;;
13487;SDS011;6816;48.506;9.050;2023-04-25T09:17:28;2.40;;;2.03;;
13487;SDS011;6816;48.506;9.050;2023-04-25T09:20:28;1.93;;;1.70;;
13487;SDS011;6816;48.506;9.050;2023-04-25T09:23:29;2.80;;;2.50;;
13487;SDS011;6816;48.506;9.050;2023-04-25T09:26:31;2.63;;;2.43;;
13487;SDS011;6816;48.506;9.050;2023-04-25T09:29:35;3.00;;;2.70;;
13487;SDS011;6816;48.506;9.050;2023-04-25T09:32:37;2.73;;;2.30;;
13487;SDS011;6816;48.506;9.050;2023-04-25T09:35:38;2.73;;;2.30;;
13487;SDS011;6816;48.506;9.050;2023-04-25T09:38:41;1.80;;;1.60;;
13487;SDS011;6816;48.506;9.050;2023-04-25T09:41:43;1.73;;;1.60;;
13487;SDS011;6816;48.506;9.050;2023-04-25T09:44:44;2.33;;;1.60;;
13487;SDS011;6816;48.506;9.050;2023-04-25T09:47:46;1.67;;;1.50;;
13487;SDS011;6816;48.506;9.050;2023-04-25T09:54:07;2.63;;;1.50;;
13487;SDS011;6816;48.506;9.050;2023-04-25T09:57:12;1.30;;;1.10;;
13487;SDS011;6816;48.506;9.050;2023-04-25T10:00:20;1.10;;;1.00;;
13487;SDS011;6816;48.506;9.050;2023-04-25T10:03:21;1.00;;;0.90;;
13487;SDS011;6816;48.506;9.050;2023-04-25T10:06:25;1.03;;;0.80;;
13487;SDS011;6816;48.506;9.050;2023-04-25T10:09:27;0.93;;;0.80;;
13487;SDS011;6816;48.506;9.050;2023-04-25T10:12:33;0.60;;;0.60;;
13487;SDS011;6816;48.506;9.050;2023-04-25T10:15:35;0.93;;;0.70;;
13487;SDS011;6816;48.506;9.050;2023-04-25T10:18:38;0.97;;;0.70;;
13487;SDS011;6816;48.506;9.050;2023-04-25T10:21:50;1.23;;;0.60;;
13487;SDS011;6816;48.506;9.050;2023-04-25T10:25:11;0.60;;;0.60;;
13487;SDS011;6816;48.506;9.050;2023-04-25T10:28:13;1.13;;;0.60;;
13487;SDS011;6816;48.506;9.050;2023-04-25T10:31:13;0.60;;;0.60;;
13487;SDS011;6816;48.506;9.050;2023-04-25T10:34:16;0.50;;;0.50;;
13487;SDS011;6816;48.506;9.050;2023-04-25T10:37:17;0.60;;;0.50;;
13487;SDS011;6816;48.506;9.050;2023-04-25T10:40:21;0.30;;;0.30;;
13487;SDS011;6816;48.506;9.050;2023-04-25T10:43:42;0.40;;;0.37;;
13487;SDS011;6816;48.506;9.050;2023-04-25T10:46:44;0.37;;;0.30;;
13487;SDS011;6816;48.506;9.050;2023-04-25T10:49:45;0.30;;;0.17;;
13487;SDS011;6816;48.506;9.050;2023-04-25T10:52:51;0.10;;;0.10;;
13487;SDS011;6816;48.506;9.050;2023-04-25T10:55:51;0.30;;;0.20;;
13487;SDS011;6816;48.506;9.050;2023-04-25T11:02:19;0.40;;;0.30;;
13487;SDS011;6816;48.506;9.050;2023-04-25T11:05:22;0.20;;;0.20;;
13487;SDS011;6816;48.506;9.050;2023-04-25T11:08:51;0.20;;;0.20;;
13487;SDS011;6816;48.506;9.050;2023-04-25T11:11:53;0.27;;;0.20;;
13487;SDS011;6816;48.506;9.050;2023-04-25T11:15:03;0.10;;;0.10;;
13487;SDS011;6816;48.506;9.050;2023-04-25T11:18:05;0.57;;;0.30;;
13487;SDS011;6816;48.506;9.050;2023-04-25T11:21:06;0.20;;;0.20;;
13487;SDS011;6816;48.506;9.050;2023-04-25T11:24:06;0.20;;;0.20;;
13487;SDS011;6816;48.506;9.050;2023-04-25T11:27:07;0.10;;;0.10;;
13487;SDS011;6816;48.506;9.050;2023-04-25T11:30:12;0.53;;;0.30;;
13487;SDS011;6816;48.506;9.050;2023-04-25T11:33:15;0.50;;;0.30;;
13487;SDS011;6816;48.506;9.050;2023-04-25T11:36:16;0.60;;;0.30;;
13487;SDS011;6816;48.506;9.050;2023-04-25T11:39:17;0.20;;;0.20;;
13487;SDS011;6816;48.506;9.050;2023-04-25T11:42:19;0.20;;;0.20;;
13487;SDS011;6816;48.506;9.050;2023-04-25T11:45:20;1.17;;;0.30;;
13487;SDS011;6816;48.506;9.050;2023-04-25T11:48:22;0.20;;;0.20;;
13487;SDS011;6816;48.506;9.050;2023-04-25T11:51:23;0.30;;;0.30;;
13487;SDS011;6816;48.506;9.050;2023-04-25T11:54:23;0.60;;;0.30;;
13487;SDS011;6816;48.506;9.050;2023-04-25T11:57:24;0.50;;;0.37;;
13487;SDS011;6816;48.506;9.050;2023-04-25T12:00:25;0.30;;;0.20;;
13487;SDS011;6816;48.506;9.050;2023-04-25T12:03:26;1.13;;;0.30;;
13487;SDS011;6816;48.506;9.050;2023-04-25T12:06:31;0.40;;;0.40;;
13487;SDS011;6816;48.506;9.050;2023-04-25T12:09:32;0.60;;;0.60;;
13487;SDS011;6816;48.506;9.050;2023-04-25T12:12:34;0.30;;;0.30;;
13487;SDS011;6816;48.506;9.050;2023-04-25T12:15:35;0.40;;;0.30;;
13487;SDS011;6816;48.506;9.050;2023-04-25T12:18:36;0.30;;;0.30;;
13487;SDS011;6816;48.506;9.050;2023-04-25T12:21:37;0.53;;;0.37;;
13487;SDS011;6816;48.506;9.050;2023-04-25T12:24:37;0.73;;;0.33;;
13487;SDS011;6816;48.506;9.050;2023-04-25T12:27:38;0.40;;;0.40;;
13487;SDS011;6816;48.506;9.050;2023-04-25T12:33:58;0.40;;;0.40;;
13487;SDS011;6816;48.506;9.050;2023-04-25T12:36:58;0.40;;;0.40;;
13487;SDS011;6816;48.506;9.050;2023-04-25T12:39:59;0.40;;;0.40;;
13487;SDS011;6816;48.506;9.050;2023-04-25T12:43:00;0.60;;;0.30;;
13487;SDS011;6816;48.506;9.050;2023-04-25T12:46:00;0.30;;;0.30;;
13487;SDS011;6816;48.506;9.050;2023-04-25T12:49:01;0.40;;;0.40;;
13487;SDS011;6816;48.506;9.050;2023-04-25T12:52:03;1.07;;;0.50;;
13487;SDS011;6816;48.506;9.050;2023-04-25T12:55:04;0.57;;;0.57;;
13487;SDS011;6816;48.506;9.050;2023-04-25T12:58:05;0.57;;;0.50;;
13487;SDS011;6816;48.506;9.050;2023-04-25T13:01:06;0.60;;;0.47;;
13487;SDS011;6816;48.506;9.050;2023-04-25T13:04:07;0.43;;;0.43;;
13487;SDS011;6816;48.506;9.050;2023-04-25T13:07:07;0.50;;;0.50;;
13487;SDS011;6816;48.506;9.050;2023-04-25T13:10:08;0.60;;;0.60;;
13487;SDS011;6816;48.506;9.050;2023-04-25T13:13:08;0.53;;;0.50;;
13487;SDS011;6816;48.506;9.050;2023-04-25T13:16:09;0.50;;;0.50;;
13487;SDS011;6816;48.506;9.050;2023-04-25T13:19:10;1.00;;;0.80;;
13487;SDS011;6816;48.506;9.050;2023-04-25T13:22:11;0.90;;;0.77;;
13487;SDS011;6816;48.506;9.050;2023-04-25T13:25:12;0.60;;;0.60;;
13487;SDS011;6816;48.506;9.050;2023-04-25T13:28:13;0.90;;;0.67;;
13487;SDS011;6816;48.506;9.050;2023-04-25T13:31:14;0.50;;;0.50;;
13487;SDS011;6816;48.506;9.050;2023-04-25T13:34:15;1.10;;;1.00;;
13487;SDS011;6816;48.506;9.050;2023-04-25T13:37:15;1.10;;;1.00;;
13487;SDS011;6816;48.506;9.050;2023-04-25T13:40:16;0.87;;;0.87;;
13487;SDS011;6816;48.506;9.050;2023-04-25T13:43:17;1.13;;;1.13;;
13487;SDS011;6816;48.506;9.050;2023-04-25T13:46:19;1.30;;;1.20;;
13487;SDS011;6816;48.506;9.050;2023-04-25T13:49:19;1.40;;;1.30;;
13487;SDS011;6816;48.506;9.050;2023-04-25T13:52:20;1.90;;;1.67;;
13487;SDS011;6816;48.506;9.050;2023-04-25T13:55:21;1.70;;;1.60;;
13487;SDS011;6816;48.506;9.050;2023-04-25T13:58:21;3.30;;;1.90;;
13487;SDS011;6816;48.506;9.050;2023-04-25T14:01:22;3.40;;;2.10;;
13487;SDS011;6816;48.506;9.050;2023-04-25T14:04:23;2.40;;;2.20;;
13487;SDS011;6816;48.506;9.050;2023-04-25T14:07:23;2.40;;;2.20;;
13487;SDS011;6816;48.506;9.050;2023-04-25T14:10:24;2.53;;;2.30;;
13487;SDS011;6816;48.506;9.050;2023-04-25T14:13:25;2.43;;;2.23;;
13487;SDS011;6816;48.506;9.050;2023-04-25T14:16:26;2.77;;;2.57;;
13487;SDS011;6816;48.506;9.050;2023-04-25T14:19:27;2.90;;;2.70;;
13487;SDS011;6816;48.506;9.050;2023-04-25T14:22:28;2.97;;;2.70;;
13487;SDS011;6816;48.506;9.050;2023-04-25T14:25:29;3.30;;;3.00;;
13487;SDS011;6816;48.506;9.050;2023-04-25T14:28:30;3.70;;;2.90;;
13487;SDS011;6816;48.506;9.050;2023-04-25T14:31:31;3.47;;;3.03;;
13487;SDS011;6816;48.506;9.050;2023-04-25T14:34:31;3.63;;;3.33;;
13487;SDS011;6816;48.506;9.050;2023-04-25T14:37:32;3.83;;;3.53;;
13487;SDS011;6816;48.506;9.050;2023-04-25T14:40:33;3.63;;;3.33;;
13487;SDS011;6816;48.506;9.050;2023-04-25T14:43:33;3.73;;;3.10;;
13487;SDS011;6816;48.506;9.050;2023-04-25T14:46:34;3.37;;;3.07;;
13487;SDS011;6816;48.506;9.050;2023-04-25T14:49:35;3.70;;;3.40;;
13487;SDS011;6816;48.506;9.050;2023-04-25T14:52:35;3.23;;;3.03;;
13487;SDS011;6816;48.506;9.050;2023-04-25T14:55:36;3.40;;;3.10;;
13487;SDS011;6816;48.506;9.050;2023-04-25T14:58:37;3.17;;;2.87;;
13487;SDS011;6816;48.506;9.050;2023-04-25T15:01:38;3.67;;;3.37;;
13487;SDS011;6816;48.506;9.050;2023-04-25T15:04:40;3.57;;;3.27;;
13487;SDS011;6816;48.506;9.050;2023-04-25T15:07:40;3.40;;;3.10;;
13487;SDS011;6816;48.506;9.050;2023-04-25T15:10:41;4.13;;;3.43;;
13487;SDS011;6816;48.506;9.050;2023-04-25T15:13:42;4.07;;;3.00;;
13487;SDS011;6816;48.506;9.050;2023-04-25T15:16:43;3.50;;;3.20;;
13487;SDS011;6816;48.506;9.050;2023-04-25T15:19:43;3.90;;;3.60;;
13487;SDS011;6816;48.506;9.050;2023-04-25T15:22:44;4.53;;;4.13;;
13487;SDS011;6816;48.506;9.050;2023-04-25T15:25:45;3.90;;;3.50;;
13487;SDS011;6816;48.506;9.050;2023-04-25T15:28:46;3.63;;;3.30;;
13487;SDS011;6816;48.506;9.050;2023-04-25T15:31:46;3.63;;;3.33;;
13487;SDS011;6816;48.506;9.050;2023-04-25T15:34:47;5.73;;;3.23;;
13487;SDS011;6816;48.506;9.050;2023-04-25T15:37:48;3.60;;;3.30;;
13487;SDS011;6816;48.506;9.050;2023-04-25T15:40:51;3.40;;;3.10;;
13487;SDS011;6816;48.506;9.050;2023-04-25T15:43:52;3.43;;;3.00;;
13487;SDS011;6816;48.506;9.050;2023-04-25T15:46:53;3.97;;;3.17;;
13487;SDS011;6816;48.506;9.050;2023-04-25T15:49:54;3.23;;;2.93;;
13487;SDS011;6816;48.506;9.050;2023-04-25T15:52:54;3.07;;;2.77;;
13487;SDS011;6816;48.506;9.050;2023-04-25T15:55:56;3.03;;;2.83;;
13487;SDS011;6816;48.506;9.050;2023-04-25T15:58:59;3.20;;;2.57;;
13487;SDS011;6816;48.506;9.050;2023-04-25T16:01:59;3.20;;;3.00;;
13487;SDS011;6816;48.506;9.050;2023-04-25T16:05:00;3.37;;;3.07;;
13487;SDS011;6816;48.506;9.050;2023-04-25T16:08:00;3.10;;;2.80;;
13487;SDS011;6816;48.506;9.050;2023-04-25T16:11:03;3.10;;;2.80;;
13487;SDS011;6816;48.506;9.050;2023-04-25T16:14:04;2.93;;;2.63;;
13487;SDS011;6816;48.506;9.050;2023-04-25T16:17:05;2.90;;;2.53;;
13487;SDS011;6816;48.506;9.050;2023-04-25T16:20:05;3.00;;;2.77;;
13487;SDS011;6816;48.506;9.050;2023-04-25T16:23:09;3.70;;;3.00;;
13487;SDS011;6816;48.506;9.050;2023-04-25T16:26:09;3.57;;;3.10;;
13487;SDS011;6816;48.506;9.050;2023-04-25T16:29:10;3.03;;;2.83;;
13487;SDS011;6816;48.506;9.050;2023-04-25T16:32:13;2.77;;;2.10;;
13487;SDS011;6816;48.506;9.050;2023-04-25T16:35:14;3.17;;;1.80;;
13487;SDS011;6816;48.506;9.050;2023-04-25T16:38:14;2.00;;;1.77;;
13487;SDS011;6816;48.506;9.050;2023-04-25T16:41:15;1.83;;;1.73;;
13487;SDS011;6816;48.506;9.050;2023-04-25T16:44:16;1.97;;;1.87;;
13487;SDS011;6816;48.506;9.050;2023-04-25T16:47:16;2.10;;;2.00;;
13487;SDS011;6816;48.506;9.050;2023-04-25T16:50:18;2.03;;;1.83;;
13487;SDS011;6816;48.506;9.050;2023-04-25T16:53:19;2.37;;;2.10;;
13487;SDS011;6816;48.506;9.050;2023-04-25T16:56:21;1.77;;;1.67;;
13487;SDS011;6816;48.506;9.050;2023-04-25T16:59:24;2.30;;;2.00;;
13487;SDS011;6816;48.506;9.050;2023-04-25T17:02:25;2.60;;;1.90;;
13487;SDS011;6816;48.506;9.050;2023-04-25T17:05:26;2.37;;;2.17;;
13487;SDS011;6816;48.506;9.050;2023-04-25T17:08:26;3.47;;;1.90;;
13487;SDS011;6816;48.506;9.050;2023-04-25T17:11:30;2.30;;;2.00;;
13487;SDS011;6816;48.506;9.050;2023-04-25T17:14:31;2.10;;;1.90;;
13487;SDS011;6816;48.506;9.050;2023-04-25T17:17:34;1.97;;;1.70;;
13487;SDS011;6816;48.506;9.050;2023-04-25T17:20:34;1.90;;;1.80;;
13487;SDS011;6816;48.506;9.050;2023-04-25T17:23:35;2.03;;;1.57;;
13487;SDS011;6816;48.506;9.050;2023-04-25T17:26:36;2.00;;;1.80;;
13487;SDS011;6816;48.506;9.050;2023-04-25T17:29:37;2.30;;;1.63;;
13487;SDS011;6816;48.506;9.050;2023-04-25T17:32:38;1.70;;;1.60;;
13487;SDS011;6816;48.506;9.050;2023-04-25T17:35:39;1.47;;;1.33;;
13487;SDS011;6816;48.506;9.050;2023-04-25T17:38:40;1.60;;;1.50;;
13487;SDS011;6816;48.506;9.050;2023-04-25T17:41:40;1.70;;;1.60;;
13487;SDS011;6816;48.506;9.050;2023-04-25T17:44:41;1.47;;;1.37;;
13487;SDS011;6816;48.506;9.050;2023-04-25T17:47:42;1.43;;;1.33;;
13487;SDS011;6816;48.506;9.050;2023-04-25T17:50:42;1.60;;;1.40;;
13487;SDS011;6816;48.506;9.050;2023-04-25T17:53:43;1.60;;;1.50;;
13487;SDS011;6816;48.506;9.050;2023-04-25T17:56:43;1.70;;;1.60;;
13487;SDS011;6816;48.506;9.050;2023-04-25T17:59:44;1.13;;;1.10;;
13487;SDS011;6816;48.506;9.050;2023-04-25T18:02:44;1.40;;;1.30;;
13487;SDS011;6816;48.506;9.050;2023-04-25T18:05:47;1.53;;;1.40;;
13487;SDS011;6816;48.506;9.050;2023-04-25T18:08:47;3.00;;;1.60;;
13487;SDS011;6816;48.506;9.050;2023-04-25T18:11:50;1.70;;;1.57;;
13487;SDS011;6816;48.506;9.050;2023-04-25T18:14:51;1.87;;;1.50;;
13487;SDS011;6816;48.506;9.050;2023-04-25T18:17:52;1.80;;;1.70;;
13487;SDS011;6816;48.506;9.050;2023-04-25T18:20:53;2.00;;;1.80;;
13487;SDS011;6816;48.506;9.050;2023-04-25T18:23:54;1.80;;;1.70;;
13487;SDS011;6816;48.506;9.050;2023-04-25T18:26:54;2.10;;;1.90;;
13487;SDS011;6816;48.506;9.050;2023-04-25T18:29:59;2.17;;;1.97;;
13487;SDS011;6816;48.506;9.050;2023-04-25T18:32:59;3.70;;;2.20;;
13487;SDS011;6816;48.506;9.050;2023-04-25T18:36:00;2.73;;;2.27;;
13487;SDS011;6816;48.506;9.050;2023-04-25T18:39:01;2.53;;;2.33;;